Time,TemperatureF,DewpointF,PressureIn,WindDirection,WindDirectionDegrees,WindSpeedMPH,WindSpeedGustMPH,Humidity,HourlyPrecipIn,Conditions,Clouds,dailyrainin,SolarRadiationWatts/m^2,SoftwareType,DateUTC
2013-04-21 00:03:00,43.0,20.0,-100.00,NW,305,5.0,15.0,39,0.00,,,0.28,0.000000,,2013-04-21 04:03:00,
2013-04-21 00:33:00,41.0,18.0,-100.00,NW,308,5.0,14.0,39,0.00,,,0.21,0.000000,,2013-04-21 04:33:00,
2013-04-21 00:43:00,41.0,18.0,-100.00,NW,308,5.0,14.0,39,0.00,,,0.21,0.000000,,2013-04-21 04:43:00,
2013-04-21 00:53:00,41.0,18.0,-100.00,NW,308,5.0,14.0,39,0.00,,,0.21,0.000000,,2013-04-21 04:53:00,
2013-04-21 01:02:00,41.0,18.0,-100.00,NW,308,5.0,14.0,39,0.00,,,0.21,0.000000,,2013-04-21 05:02:00,
2013-04-21 01:32:00,39.0,16.0,-100.00,NW,312,3.0,12.0,38,0.00,,,0.19,0.000000,,2013-04-21 05:32:00,
2013-04-21 01:43:00,39.0,16.0,-100.00,NW,312,3.0,12.0,38,0.00,,,0.19,0.000000,,2013-04-21 05:43:00,
2013-04-21 01:52:00,39.0,16.0,-100.00,NW,312,3.0,12.0,38,0.00,,,0.19,0.000000,,2013-04-21 05:52:00,
2013-04-21 02:01:00,39.0,16.0,-100.00,NW,312,3.0,12.0,38,0.00,,,0.19,0.000000,,2013-04-21 06:01:00,
2013-04-21 02:32:00,37.0,16.0,-100.00,WNW,299,2.0,12.0,42,0.00,,,0.16,0.000000,,2013-04-21 06:32:00,
2013-04-21 02:42:00,37.0,16.0,-100.00,WNW,299,2.0,12.0,42,0.00,,,0.16,0.000000,,2013-04-21 06:42:00,
2013-04-21 02:52:00,37.0,16.0,-100.00,WNW,299,2.0,12.0,42,0.00,,,0.16,0.000000,,2013-04-21 06:52:00,
2013-04-21 03:02:00,37.0,16.0,-100.00,WNW,299,2.0,12.0,42,0.00,,,0.16,0.000000,,2013-04-21 07:02:00,
2013-04-21 03:32:00,35.0,20.0,-100.00,NNW,330,1.0,9.0,53,0.00,,,0.09,0.000000,,2013-04-21 07:32:00,
2013-04-21 03:42:00,35.0,20.0,-100.00,NNW,330,1.0,9.0,53,0.00,,,0.09,0.000000,,2013-04-21 07:42:00,
2013-04-21 03:52:00,35.0,20.0,-100.00,NNW,330,1.0,9.0,53,0.00,,,0.09,0.000000,,2013-04-21 07:52:00,
2013-04-21 04:01:00,35.0,20.0,-100.00,NNW,330,1.0,9.0,53,0.00,,,0.09,0.000000,,2013-04-21 08:01:00,
2013-04-21 04:32:00,34.0,20.0,-100.00,North,2,1.0,7.0,56,0.00,,,0.05,0.000000,,2013-04-21 08:32:00,
2013-04-21 04:42:00,34.0,20.0,-100.00,North,2,1.0,7.0,56,0.00,,,0.05,0.000000,,2013-04-21 08:42:00,
2013-04-21 04:52:00,34.0,20.0,-100.00,North,2,1.0,7.0,56,0.00,,,0.05,0.000000,,2013-04-21 08:52:00,
2013-04-21 05:02:00,34.0,20.0,-100.00,North,2,1.0,7.0,56,0.00,,,0.05,0.000000,,2013-04-21 09:02:00,
2013-04-21 05:33:00,30.0,22.0,-100.00,ESE,109,1.0,3.0,73,0.00,,,0.03,0.000000,,2013-04-21 09:33:00,
2013-04-21 05:43:00,30.0,22.0,-100.00,ESE,109,1.0,3.0,73,0.00,,,0.03,0.000000,,2013-04-21 09:43:00,
2013-04-21 05:53:00,30.0,22.0,-100.00,ESE,109,1.0,3.0,73,0.00,,,0.03,0.000000,,2013-04-21 09:53:00,
2013-04-21 06:03:00,30.0,22.0,-100.00,ESE,109,1.0,3.0,73,0.00,,,0.03,0.000000,,2013-04-21 10:03:00,
2013-04-21 06:33:00,32.0,19.0,-100.00,ENE,67,1.0,6.0,58,0.00,,,0.00,1.000000,,2013-04-21 10:33:00,
2013-04-21 06:42:00,32.0,19.0,-100.00,ENE,67,1.0,6.0,58,0.00,,,0.00,1.000000,,2013-04-21 10:42:00,
2013-04-21 06:52:00,32.0,19.0,-100.00,ENE,67,1.0,6.0,58,0.00,,,0.00,1.000000,,2013-04-21 10:52:00,
2013-04-21 07:03:00,32.0,19.0,-100.00,ENE,67,1.0,6.0,58,0.00,,,0.00,1.000000,,2013-04-21 11:03:00,
2013-04-21 07:34:00,34.0,22.0,-100.00,ENE,62,2.0,5.0,60,0.00,,,0.00,35.000000,,2013-04-21 11:34:00,
2013-04-21 07:42:00,34.0,22.0,-100.00,ENE,62,2.0,5.0,60,0.00,,,0.00,35.000000,,2013-04-21 11:42:00,
2013-04-21 07:52:00,34.0,22.0,-100.00,ENE,62,2.0,5.0,60,0.00,,,0.00,35.000000,,2013-04-21 11:52:00,
2013-04-21 08:03:00,34.0,22.0,-100.00,ENE,62,2.0,5.0,60,0.00,,,0.00,35.000000,,2013-04-21 12:03:00,
2013-04-21 08:32:00,39.0,22.0,-100.00,NNE,20,3.0,10.0,50,0.00,,,0.00,262.000000,,2013-04-21 12:32:00,
2013-04-21 08:42:00,39.0,22.0,-100.00,NNE,20,3.0,10.0,50,0.00,,,0.00,262.000000,,2013-04-21 12:42:00,
2013-04-21 08:52:00,39.0,22.0,-100.00,NNE,20,3.0,10.0,50,0.00,,,0.00,262.000000,,2013-04-21 12:52:00,
2013-04-21 09:01:00,39.0,22.0,-100.00,NNE,20,3.0,10.0,50,0.00,,,0.00,262.000000,,2013-04-21 13:01:00,
2013-04-21 09:32:00,41.0,21.0,-100.00,NNE,16,4.0,10.0,44,0.00,,,0.00,476.000000,,2013-04-21 13:32:00,
2013-04-21 09:42:00,41.0,21.0,-100.00,NNE,16,4.0,10.0,44,0.00,,,0.00,476.000000,,2013-04-21 13:42:00,
2013-04-21 09:52:00,41.0,21.0,-100.00,NNE,16,4.0,10.0,44,0.00,,,0.00,476.000000,,2013-04-21 13:52:00,
2013-04-21 10:02:00,41.0,21.0,-100.00,NNE,16,4.0,10.0,44,0.00,,,0.00,476.000000,,2013-04-21 14:02:00,
2013-04-21 10:32:00,42.0,19.0,-100.00,North,359,5.0,13.0,40,0.00,,,0.00,666.000000,,2013-04-21 14:32:00,
2013-04-21 10:42:00,42.0,19.0,-100.00,North,359,5.0,13.0,40,0.00,,,0.00,666.000000,,2013-04-21 14:42:00,
2013-04-21 10:52:00,42.0,19.0,-100.00,North,359,5.0,13.0,40,0.00,,,0.00,666.000000,,2013-04-21 14:52:00,
2013-04-21 11:02:00,42.0,19.0,-100.00,North,359,5.0,13.0,40,0.00,,,0.00,666.000000,,2013-04-21 15:02:00,
2013-04-21 11:33:00,45.0,20.0,-100.00,NNW,348,4.0,11.0,36,0.00,,,0.00,838.000000,,2013-04-21 15:33:00,
2013-04-21 11:43:00,45.0,20.0,-100.00,NNW,348,4.0,11.0,36,0.00,,,0.00,838.000000,,2013-04-21 15:43:00,
2013-04-21 11:53:00,45.0,20.0,-100.00,NNW,348,4.0,11.0,36,0.00,,,0.00,838.000000,,2013-04-21 15:53:00,
2013-04-21 12:03:00,45.0,20.0,-100.00,NNW,348,4.0,11.0,36,0.00,,,0.00,838.000000,,2013-04-21 16:03:00,
2013-04-21 12:33:00,47.0,19.0,-100.00,North,7,4.0,14.0,32,0.00,,,0.00,959.000000,,2013-04-21 16:33:00,
2013-04-21 12:42:00,47.0,19.0,-100.00,North,7,4.0,14.0,32,0.00,,,0.00,959.000000,,2013-04-21 16:42:00,
2013-04-21 12:53:00,47.0,19.0,-100.00,North,7,4.0,14.0,32,0.00,,,0.00,959.000000,,2013-04-21 16:53:00,
2013-04-21 13:02:00,47.0,19.0,-100.00,North,7,4.0,14.0,32,0.00,,,0.00,959.000000,,2013-04-21 17:02:00,
2013-04-21 13:32:00,49.0,19.0,-100.00,North,356,4.0,15.0,30,0.00,,,0.00,1004.000000,,2013-04-21 17:32:00,
2013-04-21 13:42:00,49.0,19.0,-100.00,North,356,4.0,15.0,30,0.00,,,0.00,1004.000000,,2013-04-21 17:42:00,
2013-04-21 13:52:00,49.0,19.0,-100.00,North,356,4.0,15.0,30,0.00,,,0.00,1004.000000,,2013-04-21 17:52:00,
2013-04-21 14:02:00,49.0,19.0,-100.00,North,356,4.0,15.0,30,0.00,,,0.00,1004.000000,,2013-04-21 18:02:00,
2013-04-21 14:33:00,50.0,18.0,-100.00,NW,325,5.0,13.0,28,0.00,,,0.00,979.000000,,2013-04-21 18:33:00,
2013-04-21 14:42:00,50.0,18.0,-100.00,NW,325,5.0,13.0,28,0.00,,,0.00,979.000000,,2013-04-21 18:42:00,
2013-04-21 14:52:00,50.0,18.0,-100.00,NW,325,5.0,13.0,28,0.00,,,0.00,979.000000,,2013-04-21 18:52:00,
2013-04-21 15:02:00,50.0,18.0,-100.00,NW,325,5.0,13.0,28,0.00,,,0.00,979.000000,,2013-04-21 19:02:00,
2013-04-21 15:32:00,52.0,18.0,-100.00,NNW,337,5.0,13.0,26,0.00,,,0.00,876.000000,,2013-04-21 19:32:00,
2013-04-21 15:43:00,52.0,18.0,-100.00,NNW,337,5.0,13.0,26,0.00,,,0.00,876.000000,,2013-04-21 19:43:00,
2013-04-21 15:52:00,52.0,18.0,-100.00,NNW,337,5.0,13.0,26,0.00,,,0.00,876.000000,,2013-04-21 19:52:00,
2013-04-21 16:02:00,52.0,18.0,-100.00,NNW,337,5.0,13.0,26,0.00,,,0.00,876.000000,,2013-04-21 20:02:00,
2013-04-21 16:32:00,53.0,19.0,-100.00,NNW,339,5.0,12.0,26,0.00,,,0.00,749.000000,,2013-04-21 20:32:00,
2013-04-21 16:42:00,53.0,19.0,-100.00,NNW,339,5.0,12.0,26,0.00,,,0.00,749.000000,,2013-04-21 20:42:00,
2013-04-21 16:52:00,53.0,19.0,-100.00,NNW,339,5.0,12.0,26,0.00,,,0.00,749.000000,,2013-04-21 20:52:00,
2013-04-21 17:02:00,53.0,19.0,-100.00,NNW,339,5.0,12.0,26,0.00,,,0.00,749.000000,,2013-04-21 21:02:00,
2013-04-21 17:33:00,53.0,17.0,-100.00,NNE,30,4.0,13.0,24,0.00,,,0.00,580.000000,,2013-04-21 21:33:00,
2013-04-21 17:43:00,53.0,17.0,-100.00,NNE,30,4.0,13.0,24,0.00,,,0.00,580.000000,,2013-04-21 21:43:00,
2013-04-21 17:53:00,53.0,17.0,-100.00,NNE,30,4.0,13.0,24,0.00,,,0.00,580.000000,,2013-04-21 21:53:00,
2013-04-21 18:03:00,53.0,17.0,-100.00,NNE,30,4.0,13.0,24,0.00,,,0.00,580.000000,,2013-04-21 22:03:00,
2013-04-21 18:33:00,52.0,16.0,-100.00,NE,55,4.0,13.0,24,0.00,,,0.00,378.000000,,2013-04-21 22:33:00,
2013-04-21 18:43:00,52.0,16.0,-100.00,NE,55,4.0,13.0,24,0.00,,,0.00,378.000000,,2013-04-21 22:43:00,
2013-04-21 18:53:00,52.0,16.0,-100.00,NE,55,4.0,13.0,24,0.00,,,0.00,378.000000,,2013-04-21 22:53:00,
2013-04-21 19:02:00,52.0,16.0,-100.00,NE,55,4.0,13.0,24,0.00,,,0.00,378.000000,,2013-04-21 23:02:00,
2013-04-21 19:32:00,50.0,17.0,-100.00,NE,54,3.0,10.0,27,0.00,,,0.00,169.000000,,2013-04-21 23:32:00,
2013-04-21 19:43:00,50.0,17.0,-100.00,NE,54,3.0,10.0,27,0.00,,,0.00,169.000000,,2013-04-21 23:43:00,
2013-04-21 19:52:00,50.0,17.0,-100.00,NE,54,3.0,10.0,27,0.00,,,0.00,169.000000,,2013-04-21 23:52:00,
2013-04-21 20:01:00,50.0,17.0,-100.00,NE,54,3.0,10.0,27,0.00,,,0.00,169.000000,,2013-04-22 00:01:00,
2013-04-21 20:32:00,45.0,19.0,-100.00,NE,41,1.0,6.0,35,0.00,,,-99.99,15.000000,,2013-04-22 00:32:00,
2013-04-21 20:42:00,45.0,19.0,-100.00,NE,41,1.0,6.0,35,0.00,,,-99.99,15.000000,,2013-04-22 00:42:00,
2013-04-21 20:52:00,45.0,19.0,-100.00,NE,41,1.0,6.0,35,0.00,,,-99.99,15.000000,,2013-04-22 00:52:00,
2013-04-21 21:01:00,45.0,19.0,-100.00,NE,41,1.0,6.0,35,0.00,,,-99.99,15.000000,,2013-04-22 01:01:00,
2013-04-21 21:32:00,41.0,21.0,-100.00,ENE,72,1.0,4.0,44,0.00,,,0.00,0.000000,,2013-04-22 01:32:00,
2013-04-21 21:42:00,41.0,21.0,-100.00,ENE,72,1.0,4.0,44,0.00,,,0.00,0.000000,,2013-04-22 01:42:00,
2013-04-21 21:52:00,41.0,21.0,-100.00,ENE,72,1.0,4.0,44,0.00,,,0.00,0.000000,,2013-04-22 01:52:00,
2013-04-21 22:02:00,41.0,21.0,-100.00,ENE,72,1.0,4.0,44,0.00,,,0.00,0.000000,,2013-04-22 02:02:00,
2013-04-21 22:32:00,39.0,24.0,-100.00,East,80,1.0,4.0,54,0.00,,,0.00,0.000000,,2013-04-22 02:32:00,
2013-04-21 22:42:00,39.0,24.0,-100.00,East,80,1.0,4.0,54,0.00,,,0.00,0.000000,,2013-04-22 02:42:00,
2013-04-21 22:52:00,39.0,24.0,-100.00,East,80,1.0,4.0,54,0.00,,,0.00,0.000000,,2013-04-22 02:52:00,
2013-04-21 23:02:00,39.0,24.0,-100.00,East,80,1.0,4.0,54,0.00,,,0.00,0.000000,,2013-04-22 03:02:00,
2013-04-21 23:33:00,37.0,24.0,-100.00,ENE,68,0.0,4.0,59,0.00,,,0.00,0.000000,,2013-04-22 03:33:00,
2013-04-21 23:43:00,37.0,24.0,-100.00,ENE,68,0.0,4.0,59,0.00,,,0.00,0.000000,,2013-04-22 03:43:00,
2013-04-21 23:53:00,37.0,24.0,-100.00,ENE,68,0.0,4.0,59,0.00,,,0.00,0.000000,,2013-04-22 03:53:00,